Flight Track Log - Related Links

Times and Time Zones

All times are in EDT time to prevent confusion due to time zone crossing. See the N147SW flight status page for this flight to view local times or setup timezone preferences in your user account.

Time Position Orientation Groundspeed Altitude Reporting Facility
EDT Latitude Longitude Course Direction KTS MPH feet Rate Location/Type
Thu 09:53:58 PM 30.2831 -97.5125 79° East 266 306 10,000  Level Houston Center
Thu 09:54:59 PM 30.2986 -97.4083 80° East 322 371 11,900 2,634 Climbing Houston Center
Thu 09:56:01 PM 30.3175 -97.2925 79° East 359 413 15,400 3,268 Climbing Houston Center
Thu 09:57:00 PM 30.3333 -96.9510 90° East  Level FlightAware Approximate
Thu 09:57:02 PM 30.3408 -97.1528 79° East 370 426 18,600  Level Houston Center
Thu 09:58:00 PM 30.3333 -96.8127 90° East  Level FlightAware Approximate
Thu 09:58:03 PM 30.3517 -97.0306 84° East 384 442 21,300  Level Houston Center
Thu 09:59:04 PM 30.3419 -96.9003 95° East 406 467 23,400 2,146 Climbing Houston Center
Thu 10:00:06 PM 30.3325 -96.7669 95° East 412 474 25,700 2,195 Climbing Houston Center
Thu 10:01:07 PM 30.3261 -96.6297 93° East 424 488 27,900 2,066 Climbing Houston Center
Thu 10:02:08 PM 30.3169 -96.4897 94° East 434 499 29,900 1,770 Climbing Houston Center
Thu 10:03:09 PM 30.3075 -96.3478 94° East 439 505 31,500 1,869 Climbing Houston Center
Thu 10:04:10 PM 30.2986 -96.2031 94° East 448 516 33,700 2,146 Climbing Houston Center
Thu 10:05:12 PM 30.2869 -96.0344 95° East 445 512 35,900 1,659 Climbing Houston Center
Thu 10:06:13 PM 30.2631 -95.9108 103° East 439 505 37,100 1,475 Climbing Houston Center
Thu 10:07:14 PM 30.2403 -95.7767 101° East 431 496 38,900 934 Climbing Houston Center
Thu 10:08:15 PM 30.2161 -95.6369 101° East 437 503 39,000 49 Climbing Houston Center
Thu 10:09:16 PM 30.1897 -95.4864 101° East 464 534 39,000  Level Houston Center
Thu 10:10:17 PM 30.1619 -95.3317 102° East 484 557 39,000  Level Houston Center
Thu 10:11:18 PM 30.1342 -95.1719 101° East 502 578 39,000  Level Houston Center
Thu 10:12:19 PM 30.1047 -95.0114 102° East 503 579 39,000 295 Level Houston Center
Thu 10:13:20 PM 30.0761 -94.8514 102° East 506 582 39,600 984 Climbing Houston Center
Thu 10:14:21 PM 30.0472 -94.7006 102° East 487 560 41,000 689 Climbing Houston Center
Thu 10:15:22 PM 30.0131 -94.5197 102° East 479 551 41,000  Level Houston Center
Thu 10:16:23 PM 29.9858 -94.3664 102° East 486 559 41,000  Level Houston Center
Thu 10:17:24 PM 29.9564 -94.2119 102° East 492 566 41,000  Level Houston Center
Thu 10:18:25 PM 29.9283 -94.0581 102° East 494 568 41,000  Level Houston Center
Thu 10:19:26 PM 29.8989 -93.9039 102° East 494 568 41,000  Level Houston Center
Thu 10:20:27 PM 29.8697 -93.7486 102° East 495 570 41,000  Level Houston Center
Thu 10:21:28 PM 29.8392 -93.5936 103° East 498 573 41,000  Level Houston Center
Thu 10:22:29 PM 29.8097 -93.4397 102° East 497 572 41,000  Level Houston Center
Thu 10:23:31 PM 29.7808 -93.2539 100° East 497 572 41,000  Level Houston Center
Thu 10:24:31 PM 29.7597 -93.0956 99° East 499 574 41,000  Level Houston Center
Thu 10:25:33 PM 29.7386 -92.9378 99° East 502 578 41,000  Level Houston Center
Thu 10:26:34 PM 29.7172 -92.7811 99° East 501 577 41,000  Level Houston Center
Thu 10:27:35 PM 29.6947 -92.6244 99° East 501 577 41,000  Level Houston Center
Thu 10:28:36 PM 29.6728 -92.4692 99° East 496 571 41,000  Level Houston Center
Thu 10:29:37 PM 29.6508 -92.3142 99° East 496 571 41,000  Level Houston Center
Thu 10:30:38 PM 29.6283 -92.1589 99° East 495 570 41,000  Level Houston Center
Thu 10:31:39 PM 29.6064 -92.0067 99° East 488 562 41,000  Level Houston Center
Thu 10:32:40 PM 29.5861 -91.8558 99° East 485 558 41,000  Level Houston Center
Thu 10:33:42 PM 29.5622 -91.7017 100° East 474 545 41,000  Level Houston Center
Thu 10:34:43 PM 29.5414 -91.5533 99° East 474 545 41,000  Level Houston Center
Thu 10:35:44 PM 29.5144 -91.3769 100° East 471 542 41,000  Level Houston Center
Thu 10:36:45 PM 29.4919 -91.2286 100° East 471 542 41,000  Level Houston Center
Thu 10:37:47 PM 29.4689 -91.0814 100° East 471 542 41,000  Level Houston Center
Thu 10:38:48 PM 29.4478 -90.9333 99° East 471 542 41,000  Level Houston Center
Thu 10:39:49 PM 29.4239 -90.7856 100° East 471 542 41,000  Level Houston Center
Thu 10:40:50 PM 29.4006 -90.6361 100° East 474 545 41,000  Level Houston Center
Thu 10:41:51 PM 29.3783 -90.4881 100° East 475 547 41,000  Level Houston Center
Thu 10:42:53 PM 29.3536 -90.3386 101° East 477 549 41,000  Level Houston Center
Thu 10:43:54 PM 29.3303 -90.1894 100° East 477 549 41,000  Level Houston Center
Thu 10:44:55 PM 29.3014 -90.0100 100° East 479 551 41,000  Level Houston Center
Thu 10:45:56 PM 29.2775 -89.8606 100° East 479 551 41,000  Level Houston Center
Thu 10:46:57 PM 29.2522 -89.7075 101° East 488 562 41,000  Level Houston Center
Thu 10:47:59 PM 29.2281 -89.5547 100° East 489 563 41,000  Level Houston Center
Thu 10:49:00 PM 29.2025 -89.4031 101° East 489 563 41,000  Level Houston Center
Thu 10:50:01 PM 29.1781 -89.2522 100° East 488 562 41,000  Level Houston Center
Thu 10:51:02 PM 29.1522 -89.1000 101° East 488 562 41,000  Level Houston Center
Thu 10:52:03 PM 29.1269 -88.9483 101° East 488 562 41,000  Level Houston Center
Thu 10:53:04 PM 29.1017 -88.7964 101° East 489 563 41,000  Level Houston Center
Thu 10:54:05 PM 29.0703 -88.6122 101° East 494 568 41,000  Level Houston Center
Thu 10:55:06 PM 29.0436 -88.4586 101° East 494 568 41,000  Level Houston Center
Thu 10:56:07 PM 29.0164 -88.3031 101° East 496 571 41,000 439 Level Houston Center
Thu 10:57:09 PM 28.9900 -88.1494 101° East 496 571 41,900 927 Climbing Houston Center
Thu 10:58:10 PM 28.9642 -88.0075 102° East 486 559 42,900 541 Climbing Houston Center
Thu 10:59:11 PM 28.9336 -87.8575 103° East 484 557 43,000 49 Climbing Houston Center
Thu 11:00:12 PM 28.9031 -87.7031 103° East 495 570 43,000  Level Houston Center
Thu 11:01:13 PM 28.8722 -87.5483 103° East 500 575 43,000  Level Houston Center
Thu 11:02:14 PM 28.8347 -87.3600 103° East 505 581 43,000  Level Houston Center
Thu 11:03:15 PM 28.8031 -87.2042 103° East 505 581 43,000  Level Houston Center
Thu 11:04:21 PM 28.7714 -87.0467 103° East 503 579 43,000  Level Jacksonville Center
Thu 11:05:21 PM 28.7408 -86.8892 102° East 508 585 43,000  Level Jacksonville Center
Thu 11:06:21 PM 28.7042 -86.7244 104° East 513 590 43,000  Level Jacksonville Center
Thu 11:07:21 PM 28.6733 -86.5672 103° East 513 590 43,000  Level Jacksonville Center
Thu 11:08:21 PM 28.6364 -86.4003 104° East 513 590 43,000  Level Jacksonville Center
Thu 11:09:21 PM 28.6031 -86.2406 103° East 518 596 43,000  Level Jacksonville Center
Thu 11:10:21 PM 28.5675 -86.0742 104° East 524 603 43,000 -50 Level Jacksonville Center
Thu 11:11:21 PM 28.5297 -85.9075 104° East 529 609 42,900 -1,045 Descending Jacksonville Center
Thu 11:13:19 PM 28.4603 -85.5817 104° East 532 612 39,900 -1,685 Descending Miami Center
Thu 11:14:19 PM 28.4244 -85.4164 104° East 532 612 37,900 -2,033 Descending Miami Center
Thu 11:15:20 PM 28.3922 -85.2583 103° East 532 612 35,800 -2,017 Descending Miami Center
Thu 11:16:18 PM 28.3578 -85.0981 104° East 527 606 33,900 -1,966 Descending Miami Center
Thu 11:17:19 PM 28.3211 -84.9375 105° East 522 601 31,900 -1,918 Descending Miami Center
Thu 11:18:20 PM 28.2864 -84.7772 104° East 522 601 30,000 -1,950 Descending Miami Center
Thu 11:19:19 PM 28.2531 -84.6267 104° East 516 594 28,000 -1,983 Descending Miami Center
Thu 11:20:18 PM 28.2197 -84.4692 103° East 519 597 26,100 -1,900 Descending Miami Center
Thu 11:21:19 PM 28.1781 -84.3111 107° East 524 603 24,200 -1,900 Descending Miami Center
Thu 11:22:18 PM 28.1419 -84.1628 105° East 504 580 22,300 -1,785 Descending Miami Center
Thu 11:23:20 PM 28.1094 -84.0222 105° East 480 552 20,600 -1,721 Descending Miami Center
Thu 11:24:20 PM 28.0811 -83.8769 102° East 471 542 18,800 -1,664 Descending Miami Center
Thu 11:25:19 PM 28.0461 -83.7408 106° East 460 529 17,300 -1,678 Descending Miami Center
Thu 11:26:18 PM 28.0147 -83.6075 105° East 449 517 15,500 -1,714 Descending Miami Center
Thu 11:27:18 PM 27.9853 -83.4786 104° East 436 502 13,900 -1,750 Descending Miami Center
Thu 11:28:18 PM 27.9639 -83.3553 101° East 420 483 12,000 -1,918 Descending Miami Center
Thu 11:29:20 PM 27.9583 -83.2447 93° East 381 438 10,000 -2,050 Descending Miami Center
Thu 11:30:18 PM 27.9497 -83.1550 96° East 334 384 7,900 -1,916 Descending Miami Center
Thu 11:31:19 PM 27.9411 -83.0653 96° East 296 341 6,200 -1,587 Descending Miami Center
Thu 11:32:19 PM 27.9328 -82.9733 96° East 290 334 4,700 -908 Descending Miami Center
Thu 11:33:18 PM 27.9222 -82.8764 97° East 290 334 4,400 -305 Descending Miami Center
Thu 11:37:00 PM 27.9100 -82.6875 108° East  Level Estimated
Thu 11:44:00 PM 27.9100 -82.6875 341° North  Level Estimated

Login

Don't have an account? Register now (free) for customized features, flight alerts, and more!